sensor_id;sensor_type;location;lat;lon;timestamp;P1;durP1;ratioP1;P2;durP2;ratioP2
323;SDS011;149;51.094;17.002;2022-07-23T00:00:27;9.43;;;6.10;;
323;SDS011;149;51.094;17.002;2022-07-23T00:03:03;7.60;;;6.90;;
323;SDS011;149;51.094;17.002;2022-07-23T00:05:31;7.10;;;6.60;;
323;SDS011;149;51.094;17.002;2022-07-23T00:08:00;10.27;;;7.10;;
323;SDS011;149;51.094;17.002;2022-07-23T00:10:27;7.87;;;7.17;;
323;SDS011;149;51.094;17.002;2022-07-23T00:12:54;7.87;;;7.07;;
323;SDS011;149;51.094;17.002;2022-07-23T00:15:22;8.13;;;7.50;;
323;SDS011;149;51.094;17.002;2022-07-23T00:17:49;7.30;;;6.57;;
323;SDS011;149;51.094;17.002;2022-07-23T00:20:16;8.30;;;7.50;;
323;SDS011;149;51.094;17.002;2022-07-23T00:22:48;8.23;;;7.53;;
323;SDS011;149;51.094;17.002;2022-07-23T00:25:20;7.57;;;6.87;;
323;SDS011;149;51.094;17.002;2022-07-23T00:27:57;7.67;;;6.97;;
323;SDS011;149;51.094;17.002;2022-07-23T00:30:25;10.30;;;7.07;;
323;SDS011;149;51.094;17.002;2022-07-23T00:32:53;12.73;;;8.73;;
323;SDS011;149;51.094;17.002;2022-07-23T00:35:27;8.80;;;8.00;;
323;SDS011;149;51.094;17.002;2022-07-23T00:37:57;9.53;;;8.43;;
323;SDS011;149;51.094;17.002;2022-07-23T00:40:25;7.60;;;6.90;;
323;SDS011;149;51.094;17.002;2022-07-23T00:42:53;7.80;;;7.00;;
323;SDS011;149;51.094;17.002;2022-07-23T00:45:21;8.77;;;7.87;;
323;SDS011;149;51.094;17.002;2022-07-23T00:47:48;9.30;;;8.00;;
323;SDS011;149;51.094;17.002;2022-07-23T00:50:16;8.87;;;7.87;;
323;SDS011;149;51.094;17.002;2022-07-23T00:52:43;8.80;;;8.00;;
323;SDS011;149;51.094;17.002;2022-07-23T00:55:11;9.40;;;8.50;;
323;SDS011;149;51.094;17.002;2022-07-23T00:57:39;9.83;;;8.83;;
323;SDS011;149;51.094;17.002;2022-07-23T01:00:09;9.10;;;8.20;;
323;SDS011;149;51.094;17.002;2022-07-23T01:02:38;21.90;;;8.87;;
323;SDS011;149;51.094;17.002;2022-07-23T01:05:07;14.57;;;8.43;;
323;SDS011;149;51.094;17.002;2022-07-23T01:07:35;9.63;;;8.63;;
323;SDS011;149;51.094;17.002;2022-07-23T01:10:03;9.13;;;8.27;;
323;SDS011;149;51.094;17.002;2022-07-23T01:12:52;9.63;;;8.83;;
323;SDS011;149;51.094;17.002;2022-07-23T01:15:19;12.60;;;9.60;;
323;SDS011;149;51.094;17.002;2022-07-23T01:17:46;8.60;;;7.57;;
323;SDS011;149;51.094;17.002;2022-07-23T01:20:13;9.90;;;8.90;;
323;SDS011;149;51.094;17.002;2022-07-23T01:22:41;9.57;;;8.67;;
323;SDS011;149;51.094;17.002;2022-07-23T01:25:08;9.70;;;8.50;;
323;SDS011;149;51.094;17.002;2022-07-23T01:27:36;9.67;;;8.70;;
323;SDS011;149;51.094;17.002;2022-07-23T01:30:04;9.97;;;9.07;;
323;SDS011;149;51.094;17.002;2022-07-23T01:32:32;10.13;;;8.57;;
323;SDS011;149;51.094;17.002;2022-07-23T01:34:59;9.77;;;8.77;;
323;SDS011;149;51.094;17.002;2022-07-23T01:37:27;9.67;;;8.67;;
323;SDS011;149;51.094;17.002;2022-07-23T01:39:54;9.23;;;8.30;;
323;SDS011;149;51.094;17.002;2022-07-23T01:42:22;8.90;;;8.00;;
323;SDS011;149;51.094;17.002;2022-07-23T01:44:49;9.67;;;8.30;;
323;SDS011;149;51.094;17.002;2022-07-23T01:47:17;10.37;;;9.17;;
323;SDS011;149;51.094;17.002;2022-07-23T01:49:44;8.43;;;7.63;;
323;SDS011;149;51.094;17.002;2022-07-23T01:52:12;9.30;;;8.00;;
323;SDS011;149;51.094;17.002;2022-07-23T01:54:39;11.30;;;8.40;;
323;SDS011;149;51.094;17.002;2022-07-23T01:57:06;8.77;;;7.97;;
323;SDS011;149;51.094;17.002;2022-07-23T01:59:34;9.43;;;8.40;;
323;SDS011;149;51.094;17.002;2022-07-23T02:02:02;9.13;;;8.30;;
323;SDS011;149;51.094;17.002;2022-07-23T02:04:30;9.40;;;8.47;;
323;SDS011;149;51.094;17.002;2022-07-23T02:06:58;10.57;;;9.47;;
323;SDS011;149;51.094;17.002;2022-07-23T02:09:25;9.93;;;9.07;;
323;SDS011;149;51.094;17.002;2022-07-23T02:11:52;10.50;;;9.50;;
323;SDS011;149;51.094;17.002;2022-07-23T02:14:20;10.70;;;9.70;;
323;SDS011;149;51.094;17.002;2022-07-23T02:16:47;12.40;;;9.20;;
323;SDS011;149;51.094;17.002;2022-07-23T02:19:14;11.87;;;8.07;;
323;SDS011;149;51.094;17.002;2022-07-23T02:21:42;9.80;;;8.80;;
323;SDS011;149;51.094;17.002;2022-07-23T02:24:10;9.47;;;8.47;;
323;SDS011;149;51.094;17.002;2022-07-23T02:26:37;13.73;;;8.70;;
323;SDS011;149;51.094;17.002;2022-07-23T02:29:04;11.43;;;8.10;;
323;SDS011;149;51.094;17.002;2022-07-23T02:31:31;11.57;;;10.47;;
323;SDS011;149;51.094;17.002;2022-07-23T02:33:59;10.00;;;9.00;;
323;SDS011;149;51.094;17.002;2022-07-23T02:36:27;11.07;;;9.20;;
323;SDS011;149;51.094;17.002;2022-07-23T02:38:55;10.13;;;9.23;;
323;SDS011;149;51.094;17.002;2022-07-23T02:41:22;11.50;;;8.37;;
323;SDS011;149;51.094;17.002;2022-07-23T02:43:50;15.97;;;9.70;;
323;SDS011;149;51.094;17.002;2022-07-23T02:46:17;11.43;;;8.93;;
323;SDS011;149;51.094;17.002;2022-07-23T02:48:45;9.70;;;8.70;;
323;SDS011;149;51.094;17.002;2022-07-23T02:51:12;11.20;;;8.30;;
323;SDS011;149;51.094;17.002;2022-07-23T02:53:40;9.33;;;8.27;;
323;SDS011;149;51.094;17.002;2022-07-23T02:56:07;12.80;;;9.70;;
323;SDS011;149;51.094;17.002;2022-07-23T02:58:35;11.97;;;9.50;;
323;SDS011;149;51.094;17.002;2022-07-23T03:01:03;10.57;;;9.57;;
323;SDS011;149;51.094;17.002;2022-07-23T03:03:30;10.93;;;9.80;;
323;SDS011;149;51.094;17.002;2022-07-23T03:05:57;10.73;;;9.63;;
323;SDS011;149;51.094;17.002;2022-07-23T03:08:25;15.50;;;9.37;;
323;SDS011;149;51.094;17.002;2022-07-23T03:10:52;10.27;;;9.23;;
323;SDS011;149;51.094;17.002;2022-07-23T03:13:20;9.17;;;8.27;;
323;SDS011;149;51.094;17.002;2022-07-23T03:15:47;10.57;;;9.43;;
323;SDS011;149;51.094;17.002;2022-07-23T03:18:14;10.70;;;9.50;;
323;SDS011;149;51.094;17.002;2022-07-23T03:20:41;10.57;;;9.47;;
323;SDS011;149;51.094;17.002;2022-07-23T03:23:08;10.10;;;9.10;;
323;SDS011;149;51.094;17.002;2022-07-23T03:25:36;9.27;;;8.33;;
323;SDS011;149;51.094;17.002;2022-07-23T03:28:03;8.90;;;8.10;;
323;SDS011;149;51.094;17.002;2022-07-23T03:30:31;9.80;;;8.80;;
323;SDS011;149;51.094;17.002;2022-07-23T03:32:58;8.93;;;8.10;;
323;SDS011;149;51.094;17.002;2022-07-23T03:35:25;15.90;;;9.07;;
323;SDS011;149;51.094;17.002;2022-07-23T03:37:53;11.20;;;10.17;;
323;SDS011;149;51.094;17.002;2022-07-23T03:40:20;10.03;;;8.10;;
323;SDS011;149;51.094;17.002;2022-07-23T03:42:48;11.23;;;8.70;;
323;SDS011;149;51.094;17.002;2022-07-23T03:45:15;9.10;;;8.20;;
323;SDS011;149;51.094;17.002;2022-07-23T03:47:42;11.03;;;9.90;;
323;SDS011;149;51.094;17.002;2022-07-23T03:50:11;11.47;;;10.30;;
323;SDS011;149;51.094;17.002;2022-07-23T03:52:38;9.40;;;8.60;;
323;SDS011;149;51.094;17.002;2022-07-23T03:55:05;13.30;;;10.63;;
323;SDS011;149;51.094;17.002;2022-07-23T03:57:33;10.00;;;9.00;;
323;SDS011;149;51.094;17.002;2022-07-23T04:00:00;9.50;;;8.50;;
323;SDS011;149;51.094;17.002;2022-07-23T04:02:29;9.63;;;8.80;;
323;SDS011;149;51.094;17.002;2022-07-23T04:04:56;13.40;;;9.30;;
323;SDS011;149;51.094;17.002;2022-07-23T04:07:23;13.53;;;9.37;;
323;SDS011;149;51.094;17.002;2022-07-23T04:09:51;10.27;;;9.00;;
323;SDS011;149;51.094;17.002;2022-07-23T04:12:18;16.63;;;7.73;;
323;SDS011;149;51.094;17.002;2022-07-23T04:14:46;10.90;;;9.27;;
323;SDS011;149;51.094;17.002;2022-07-23T04:17:13;10.07;;;9.10;;
323;SDS011;149;51.094;17.002;2022-07-23T04:19:41;9.57;;;8.77;;
323;SDS011;149;51.094;17.002;2022-07-23T04:22:10;9.67;;;8.67;;
323;SDS011;149;51.094;17.002;2022-07-23T04:24:38;9.30;;;8.43;;
323;SDS011;149;51.094;17.002;2022-07-23T04:27:05;11.13;;;8.70;;
323;SDS011;149;51.094;17.002;2022-07-23T04:29:33;10.37;;;9.07;;
323;SDS011;149;51.094;17.002;2022-07-23T04:32:00;12.83;;;9.77;;
323;SDS011;149;51.094;17.002;2022-07-23T04:34:28;8.77;;;7.90;;
323;SDS011;149;51.094;17.002;2022-07-23T04:36:55;10.57;;;9.27;;
323;SDS011;149;51.094;17.002;2022-07-23T04:39:23;11.33;;;8.50;;
323;SDS011;149;51.094;17.002;2022-07-23T04:41:50;9.10;;;8.20;;
323;SDS011;149;51.094;17.002;2022-07-23T04:44:17;7.97;;;7.27;;
323;SDS011;149;51.094;17.002;2022-07-23T04:46:45;10.17;;;9.10;;
323;SDS011;149;51.094;17.002;2022-07-23T04:49:12;7.67;;;6.77;;
323;SDS011;149;51.094;17.002;2022-07-23T04:51:39;8.47;;;7.73;;
323;SDS011;149;51.094;17.002;2022-07-23T04:54:07;8.60;;;7.80;;
323;SDS011;149;51.094;17.002;2022-07-23T04:56:34;7.80;;;7.10;;
323;SDS011;149;51.094;17.002;2022-07-23T04:59:01;7.87;;;7.17;;
323;SDS011;149;51.094;17.002;2022-07-23T05:01:29;10.00;;;7.33;;
323;SDS011;149;51.094;17.002;2022-07-23T05:03:56;12.40;;;8.67;;
323;SDS011;149;51.094;17.002;2022-07-23T05:06:24;8.70;;;7.80;;
323;SDS011;149;51.094;17.002;2022-07-23T05:08:51;7.70;;;6.93;;
323;SDS011;149;51.094;17.002;2022-07-23T05:11:19;8.53;;;7.03;;
323;SDS011;149;51.094;17.002;2022-07-23T05:13:52;7.30;;;6.70;;
323;SDS011;149;51.094;17.002;2022-07-23T05:16:19;7.30;;;6.70;;
323;SDS011;149;51.094;17.002;2022-07-23T05:18:46;7.77;;;7.07;;
323;SDS011;149;51.094;17.002;2022-07-23T05:21:14;7.83;;;7.10;;
323;SDS011;149;51.094;17.002;2022-07-23T05:23:41;9.67;;;7.33;;
323;SDS011;149;51.094;17.002;2022-07-23T05:26:08;8.33;;;7.53;;
323;SDS011;149;51.094;17.002;2022-07-23T05:28:35;8.93;;;8.03;;
323;SDS011;149;51.094;17.002;2022-07-23T05:31:03;7.33;;;6.73;;
323;SDS011;149;51.094;17.002;2022-07-23T05:33:31;7.37;;;6.30;;
323;SDS011;149;51.094;17.002;2022-07-23T05:36:01;8.13;;;7.30;;
323;SDS011;149;51.094;17.002;2022-07-23T05:38:30;8.07;;;7.37;;
323;SDS011;149;51.094;17.002;2022-07-23T05:40:57;8.87;;;7.97;;
323;SDS011;149;51.094;17.002;2022-07-23T05:43:26;9.13;;;6.73;;
323;SDS011;149;51.094;17.002;2022-07-23T05:45:53;8.20;;;7.40;;
323;SDS011;149;51.094;17.002;2022-07-23T05:48:21;7.37;;;6.70;;
323;SDS011;149;51.094;17.002;2022-07-23T05:50:48;8.83;;;8.03;;
323;SDS011;149;51.094;17.002;2022-07-23T05:53:15;8.70;;;8.00;;
323;SDS011;149;51.094;17.002;2022-07-23T05:55:43;7.83;;;7.10;;
323;SDS011;149;51.094;17.002;2022-07-23T05:58:10;8.30;;;7.50;;
323;SDS011;149;51.094;17.002;2022-07-23T06:00:37;8.10;;;7.30;;
323;SDS011;149;51.094;17.002;2022-07-23T06:03:04;7.07;;;6.47;;
323;SDS011;149;51.094;17.002;2022-07-23T06:05:31;8.67;;;7.10;;
323;SDS011;149;51.094;17.002;2022-07-23T06:07:59;6.93;;;6.30;;
323;SDS011;149;51.094;17.002;2022-07-23T06:10:26;9.93;;;7.50;;
323;SDS011;149;51.094;17.002;2022-07-23T06:12:53;9.13;;;8.23;;
323;SDS011;149;51.094;17.002;2022-07-23T06:15:27;6.70;;;6.20;;
323;SDS011;149;51.094;17.002;2022-07-23T06:17:54;7.73;;;6.97;;
323;SDS011;149;51.094;17.002;2022-07-23T06:20:21;10.50;;;7.43;;
323;SDS011;149;51.094;17.002;2022-07-23T06:22:48;8.17;;;7.07;;
323;SDS011;149;51.094;17.002;2022-07-23T06:25:15;9.70;;;6.90;;
323;SDS011;149;51.094;17.002;2022-07-23T06:27:45;8.63;;;7.57;;
323;SDS011;149;51.094;17.002;2022-07-23T06:30:13;8.03;;;7.23;;
323;SDS011;149;51.094;17.002;2022-07-23T06:32:44;9.13;;;7.30;;
323;SDS011;149;51.094;17.002;2022-07-23T06:35:12;6.60;;;6.00;;
323;SDS011;149;51.094;17.002;2022-07-23T06:37:39;7.63;;;6.80;;
323;SDS011;149;51.094;17.002;2022-07-23T06:40:06;13.60;;;7.50;;
323;SDS011;149;51.094;17.002;2022-07-23T06:42:35;8.70;;;7.93;;
323;SDS011;149;51.094;17.002;2022-07-23T06:45:06;7.47;;;6.77;;
323;SDS011;149;51.094;17.002;2022-07-23T06:47:34;8.10;;;7.33;;
323;SDS011;149;51.094;17.002;2022-07-23T06:50:01;8.00;;;7.20;;
323;SDS011;149;51.094;17.002;2022-07-23T06:52:29;7.70;;;7.00;;
323;SDS011;149;51.094;17.002;2022-07-23T06:54:56;8.97;;;7.23;;
323;SDS011;149;51.094;17.002;2022-07-23T06:57:24;7.87;;;7.17;;
323;SDS011;149;51.094;17.002;2022-07-23T06:59:52;11.27;;;6.80;;
323;SDS011;149;51.094;17.002;2022-07-23T07:02:21;9.40;;;7.10;;
323;SDS011;149;51.094;17.002;2022-07-23T07:04:49;7.07;;;6.37;;
323;SDS011;149;51.094;17.002;2022-07-23T07:07:16;7.50;;;6.90;;
323;SDS011;149;51.094;17.002;2022-07-23T07:09:43;8.20;;;7.40;;
323;SDS011;149;51.094;17.002;2022-07-23T07:12:13;7.70;;;7.00;;
323;SDS011;149;51.094;17.002;2022-07-23T07:14:41;6.73;;;6.20;;
323;SDS011;149;51.094;17.002;2022-07-23T07:17:08;6.20;;;5.67;;
323;SDS011;149;51.094;17.002;2022-07-23T07:19:37;7.80;;;7.10;;
323;SDS011;149;51.094;17.002;2022-07-23T07:22:04;8.60;;;7.60;;
323;SDS011;149;51.094;17.002;2022-07-23T07:24:32;6.60;;;6.00;;
323;SDS011;149;51.094;17.002;2022-07-23T07:27:03;7.97;;;7.27;;
323;SDS011;149;51.094;17.002;2022-07-23T07:29:30;8.33;;;7.50;;
323;SDS011;149;51.094;17.002;2022-07-23T07:31:58;8.63;;;7.93;;
323;SDS011;149;51.094;17.002;2022-07-23T07:34:25;8.53;;;7.63;;
323;SDS011;149;51.094;17.002;2022-07-23T07:36:53;8.57;;;7.77;;
323;SDS011;149;51.094;17.002;2022-07-23T07:39:20;8.07;;;7.30;;
323;SDS011;149;51.094;17.002;2022-07-23T07:41:48;8.17;;;7.43;;
323;SDS011;149;51.094;17.002;2022-07-23T07:44:15;8.00;;;7.17;;
323;SDS011;149;51.094;17.002;2022-07-23T07:46:43;8.87;;;7.80;;
323;SDS011;149;51.094;17.002;2022-07-23T07:49:10;9.10;;;8.30;;
323;SDS011;149;51.094;17.002;2022-07-23T07:51:41;8.30;;;7.60;;
323;SDS011;149;51.094;17.002;2022-07-23T07:54:11;7.93;;;7.23;;
323;SDS011;149;51.094;17.002;2022-07-23T07:56:38;7.80;;;7.10;;
323;SDS011;149;51.094;17.002;2022-07-23T07:59:07;12.10;;;6.80;;
323;SDS011;149;51.094;17.002;2022-07-23T08:01:36;7.97;;;7.27;;
323;SDS011;149;51.094;17.002;2022-07-23T08:04:03;8.50;;;7.47;;
323;SDS011;149;51.094;17.002;2022-07-23T08:06:31;9.30;;;8.43;;
323;SDS011;149;51.094;17.002;2022-07-23T08:08:59;8.57;;;7.87;;
323;SDS011;149;51.094;17.002;2022-07-23T08:11:26;10.33;;;8.67;;
323;SDS011;149;51.094;17.002;2022-07-23T08:13:54;14.83;;;7.40;;
323;SDS011;149;51.094;17.002;2022-07-23T08:16:21;9.07;;;8.27;;
323;SDS011;149;51.094;17.002;2022-07-23T08:18:50;11.00;;;8.00;;
323;SDS011;149;51.094;17.002;2022-07-23T08:21:17;12.57;;;7.87;;
323;SDS011;149;51.094;17.002;2022-07-23T08:23:45;9.23;;;7.53;;
323;SDS011;149;51.094;17.002;2022-07-23T08:26:13;9.23;;;8.43;;
323;SDS011;149;51.094;17.002;2022-07-23T08:28:40;8.47;;;7.57;;
323;SDS011;149;51.094;17.002;2022-07-23T08:31:07;7.60;;;7.00;;
323;SDS011;149;51.094;17.002;2022-07-23T08:33:34;8.93;;;8.23;;
323;SDS011;149;51.094;17.002;2022-07-23T08:36:02;9.57;;;8.67;;
323;SDS011;149;51.094;17.002;2022-07-23T08:38:31;13.93;;;7.17;;
323;SDS011;149;51.094;17.002;2022-07-23T08:40:59;8.00;;;7.30;;
323;SDS011;149;51.094;17.002;2022-07-23T08:43:31;9.63;;;8.00;;
323;SDS011;149;51.094;17.002;2022-07-23T08:46:00;7.70;;;7.00;;
323;SDS011;149;51.094;17.002;2022-07-23T08:48:30;15.10;;;9.70;;
323;SDS011;149;51.094;17.002;2022-07-23T08:51:01;8.57;;;7.43;;
323;SDS011;149;51.094;17.002;2022-07-23T08:53:30;9.10;;;8.40;;
323;SDS011;149;51.094;17.002;2022-07-23T08:55:59;9.20;;;8.40;;
323;SDS011;149;51.094;17.002;2022-07-23T08:58:28;16.50;;;8.03;;
323;SDS011;149;51.094;17.002;2022-07-23T09:00:56;7.73;;;7.13;;
323;SDS011;149;51.094;17.002;2022-07-23T09:05:53;8.63;;;7.53;;
323;SDS011;149;51.094;17.002;2022-07-23T09:08:24;8.37;;;7.20;;
323;SDS011;149;51.094;17.002;2022-07-23T09:11:01;8.47;;;7.60;;
323;SDS011;149;51.094;17.002;2022-07-23T09:16:04;8.17;;;7.40;;
323;SDS011;149;51.094;17.002;2022-07-23T09:21:08;7.33;;;6.80;;
323;SDS011;149;51.094;17.002;2022-07-23T09:34:33;9.43;;;7.70;;
323;SDS011;149;51.094;17.002;2022-07-23T09:37:11;8.80;;;8.00;;
323;SDS011;149;51.094;17.002;2022-07-23T09:39:40;7.63;;;7.03;;
323;SDS011;149;51.094;17.002;2022-07-23T09:42:16;9.73;;;8.03;;
323;SDS011;149;51.094;17.002;2022-07-23T09:44:47;7.93;;;7.33;;
323;SDS011;149;51.094;17.002;2022-07-23T09:47:16;10.20;;;8.33;;
323;SDS011;149;51.094;17.002;2022-07-23T09:52:52;9.60;;;8.60;;
323;SDS011;149;51.094;17.002;2022-07-23T09:55:21;9.50;;;8.57;;
323;SDS011;149;51.094;17.002;2022-07-23T09:58:05;8.13;;;7.37;;
323;SDS011;149;51.094;17.002;2022-07-23T10:00:36;9.60;;;7.90;;
323;SDS011;149;51.094;17.002;2022-07-23T10:03:03;8.50;;;7.70;;
323;SDS011;149;51.094;17.002;2022-07-23T10:05:32;10.00;;;7.60;;
323;SDS011;149;51.094;17.002;2022-07-23T10:08:02;8.07;;;7.27;;
323;SDS011;149;51.094;17.002;2022-07-23T10:10:30;11.13;;;9.20;;
323;SDS011;149;51.094;17.002;2022-07-23T10:12:58;8.57;;;7.90;;
323;SDS011;149;51.094;17.002;2022-07-23T10:15:47;8.50;;;7.70;;
323;SDS011;149;51.094;17.002;2022-07-23T10:18:14;9.33;;;8.40;;
323;SDS011;149;51.094;17.002;2022-07-23T10:20:42;8.40;;;7.70;;
323;SDS011;149;51.094;17.002;2022-07-23T10:25:50;9.47;;;8.77;;
323;SDS011;149;51.094;17.002;2022-07-23T10:31:20;9.30;;;7.10;;
323;SDS011;149;51.094;17.002;2022-07-23T10:37:12;8.97;;;8.13;;
323;SDS011;149;51.094;17.002;2022-07-23T10:42:37;13.17;;;9.97;;
323;SDS011;149;51.094;17.002;2022-07-23T10:47:53;11.43;;;10.33;;
323;SDS011;149;51.094;17.002;2022-07-23T10:50:25;12.77;;;11.67;;
323;SDS011;149;51.094;17.002;2022-07-23T10:58:03;11.27;;;10.17;;
323;SDS011;149;51.094;17.002;2022-07-23T11:00:33;12.27;;;10.97;;
323;SDS011;149;51.094;17.002;2022-07-23T11:03:06;11.30;;;9.60;;
323;SDS011;149;51.094;17.002;2022-07-23T11:05:59;11.17;;;10.00;;
323;SDS011;149;51.094;17.002;2022-07-23T11:08:26;12.83;;;11.60;;
323;SDS011;149;51.094;17.002;2022-07-23T11:24:11;12.40;;;11.20;;
323;SDS011;149;51.094;17.002;2022-07-23T11:31:55;13.83;;;12.43;;
323;SDS011;149;51.094;17.002;2022-07-23T11:34:30;13.47;;;12.27;;
323;SDS011;149;51.094;17.002;2022-07-23T11:36:59;17.20;;;13.47;;
323;SDS011;149;51.094;17.002;2022-07-23T11:39:29;12.73;;;11.40;;
323;SDS011;149;51.094;17.002;2022-07-23T11:41:57;14.50;;;13.10;;
323;SDS011;149;51.094;17.002;2022-07-23T11:44:29;12.40;;;11.30;;
323;SDS011;149;51.094;17.002;2022-07-23T11:47:04;14.23;;;12.53;;
323;SDS011;149;51.094;17.002;2022-07-23T11:49:34;14.87;;;13.37;;
323;SDS011;149;51.094;17.002;2022-07-23T11:52:13;13.93;;;12.53;;
323;SDS011;149;51.094;17.002;2022-07-23T11:54:51;14.57;;;13.10;;
323;SDS011;149;51.094;17.002;2022-07-23T11:57:29;14.70;;;13.37;;
323;SDS011;149;51.094;17.002;2022-07-23T12:00:08;12.60;;;11.50;;
323;SDS011;149;51.094;17.002;2022-07-23T12:02:42;11.87;;;10.77;;
323;SDS011;149;51.094;17.002;2022-07-23T12:05:12;12.00;;;10.70;;
323;SDS011;149;51.094;17.002;2022-07-23T12:07:44;12.80;;;11.53;;
323;SDS011;149;51.094;17.002;2022-07-23T12:10:19;15.43;;;11.10;;
323;SDS011;149;51.094;17.002;2022-07-23T12:12:54;11.53;;;10.43;;
323;SDS011;149;51.094;17.002;2022-07-23T12:15:41;12.67;;;11.27;;
323;SDS011;149;51.094;17.002;2022-07-23T12:18:11;13.00;;;10.73;;
323;SDS011;149;51.094;17.002;2022-07-23T12:20:46;11.70;;;10.60;;
323;SDS011;149;51.094;17.002;2022-07-23T12:23:16;11.53;;;10.40;;
323;SDS011;149;51.094;17.002;2022-07-23T12:25:46;9.87;;;8.97;;
323;SDS011;149;51.094;17.002;2022-07-23T12:28:20;11.30;;;10.20;;
323;SDS011;149;51.094;17.002;2022-07-23T12:30:54;13.47;;;12.20;;
323;SDS011;149;51.094;17.002;2022-07-23T12:33:27;11.83;;;10.80;;
323;SDS011;149;51.094;17.002;2022-07-23T12:36:00;10.77;;;9.77;;
323;SDS011;149;51.094;17.002;2022-07-23T12:38:50;10.43;;;9.43;;
323;SDS011;149;51.094;17.002;2022-07-23T12:41:17;9.80;;;9.00;;
323;SDS011;149;51.094;17.002;2022-07-23T12:43:45;10.00;;;9.10;;
323;SDS011;149;51.094;17.002;2022-07-23T12:46:14;9.83;;;9.00;;
323;SDS011;149;51.094;17.002;2022-07-23T12:51:35;9.73;;;8.93;;
323;SDS011;149;51.094;17.002;2022-07-23T12:54:11;10.57;;;9.57;;
323;SDS011;149;51.094;17.002;2022-07-23T12:56:40;10.17;;;9.27;;
323;SDS011;149;51.094;17.002;2022-07-23T12:59:14;10.90;;;9.80;;
323;SDS011;149;51.094;17.002;2022-07-23T13:01:44;10.40;;;9.27;;
323;SDS011;149;51.094;17.002;2022-07-23T13:04:23;9.80;;;8.90;;
323;SDS011;149;51.094;17.002;2022-07-23T13:06:53;9.30;;;8.40;;
323;SDS011;149;51.094;17.002;2022-07-23T13:09:25;10.87;;;9.13;;
323;SDS011;149;51.094;17.002;2022-07-23T13:11:58;9.93;;;9.10;;
323;SDS011;149;51.094;17.002;2022-07-23T13:14:26;10.90;;;9.90;;
323;SDS011;149;51.094;17.002;2022-07-23T13:16:55;10.40;;;9.50;;
323;SDS011;149;51.094;17.002;2022-07-23T13:19:25;9.70;;;8.80;;
323;SDS011;149;51.094;17.002;2022-07-23T13:21:53;9.83;;;8.93;;
323;SDS011;149;51.094;17.002;2022-07-23T13:24:21;10.47;;;9.67;;
323;SDS011;149;51.094;17.002;2022-07-23T13:26:48;10.43;;;9.33;;
323;SDS011;149;51.094;17.002;2022-07-23T13:29:18;10.30;;;8.07;;
323;SDS011;149;51.094;17.002;2022-07-23T13:31:46;10.33;;;9.33;;
323;SDS011;149;51.094;17.002;2022-07-23T13:34:16;10.03;;;9.00;;
323;SDS011;149;51.094;17.002;2022-07-23T13:36:45;11.67;;;10.57;;
323;SDS011;149;51.094;17.002;2022-07-23T13:39:12;10.77;;;9.20;;
323;SDS011;149;51.094;17.002;2022-07-23T13:41:40;14.60;;;9.57;;
323;SDS011;149;51.094;17.002;2022-07-23T13:44:16;9.87;;;9.00;;
323;SDS011;149;51.094;17.002;2022-07-23T13:46:45;11.27;;;10.23;;
323;SDS011;149;51.094;17.002;2022-07-23T13:49:13;15.77;;;9.70;;
323;SDS011;149;51.094;17.002;2022-07-23T13:51:41;10.23;;;9.33;;
323;SDS011;149;51.094;17.002;2022-07-23T13:54:08;9.60;;;8.80;;
323;SDS011;149;51.094;17.002;2022-07-23T13:56:35;10.30;;;9.20;;
323;SDS011;149;51.094;17.002;2022-07-23T13:59:03;10.93;;;9.50;;
323;SDS011;149;51.094;17.002;2022-07-23T14:01:32;10.10;;;9.20;;
323;SDS011;149;51.094;17.002;2022-07-23T14:04:20;11.33;;;10.37;;
323;SDS011;149;51.094;17.002;2022-07-23T14:06:47;11.93;;;10.27;;
323;SDS011;149;51.094;17.002;2022-07-23T14:09:19;10.73;;;9.83;;
323;SDS011;149;51.094;17.002;2022-07-23T14:11:47;10.70;;;9.70;;
323;SDS011;149;51.094;17.002;2022-07-23T14:14:14;9.13;;;8.33;;
323;SDS011;149;51.094;17.002;2022-07-23T14:16:41;11.00;;;10.10;;
323;SDS011;149;51.094;17.002;2022-07-23T14:19:09;9.97;;;8.80;;
323;SDS011;149;51.094;17.002;2022-07-23T14:21:37;9.40;;;8.60;;
323;SDS011;149;51.094;17.002;2022-07-23T14:24:04;10.47;;;9.57;;
323;SDS011;149;51.094;17.002;2022-07-23T14:26:32;10.00;;;9.20;;
323;SDS011;149;51.094;17.002;2022-07-23T14:28:59;10.33;;;9.43;;
323;SDS011;149;51.094;17.002;2022-07-23T14:31:28;10.23;;;9.43;;
323;SDS011;149;51.094;17.002;2022-07-23T14:33:55;10.43;;;9.30;;
323;SDS011;149;51.094;17.002;2022-07-23T14:36:23;10.43;;;9.43;;
323;SDS011;149;51.094;17.002;2022-07-23T14:38:50;11.07;;;9.97;;
323;SDS011;149;51.094;17.002;2022-07-23T14:41:18;10.40;;;9.33;;
323;SDS011;149;51.094;17.002;2022-07-23T14:43:52;10.77;;;9.80;;
323;SDS011;149;51.094;17.002;2022-07-23T14:46:20;10.20;;;9.30;;
323;SDS011;149;51.094;17.002;2022-07-23T14:48:47;11.47;;;10.40;;
323;SDS011;149;51.094;17.002;2022-07-23T14:51:14;11.53;;;10.33;;
323;SDS011;149;51.094;17.002;2022-07-23T14:53:41;11.87;;;8.50;;
323;SDS011;149;51.094;17.002;2022-07-23T14:56:09;10.10;;;9.10;;
323;SDS011;149;51.094;17.002;2022-07-23T14:58:40;10.33;;;9.33;;
323;SDS011;149;51.094;17.002;2022-07-23T15:01:08;12.23;;;10.90;;
323;SDS011;149;51.094;17.002;2022-07-23T15:03:37;11.63;;;9.83;;
323;SDS011;149;51.094;17.002;2022-07-23T15:06:08;10.93;;;9.90;;
323;SDS011;149;51.094;17.002;2022-07-23T15:08:37;10.93;;;10.03;;
323;SDS011;149;51.094;17.002;2022-07-23T15:11:05;14.23;;;10.00;;
323;SDS011;149;51.094;17.002;2022-07-23T15:13:36;10.83;;;9.80;;
323;SDS011;149;51.094;17.002;2022-07-23T15:16:04;10.70;;;9.70;;
323;SDS011;149;51.094;17.002;2022-07-23T15:18:35;16.83;;;9.23;;
323;SDS011;149;51.094;17.002;2022-07-23T15:21:03;10.70;;;8.37;;
323;SDS011;149;51.094;17.002;2022-07-23T15:23:30;11.07;;;10.17;;
323;SDS011;149;51.094;17.002;2022-07-23T15:25:58;13.30;;;8.70;;
323;SDS011;149;51.094;17.002;2022-07-23T15:28:25;10.30;;;9.40;;
323;SDS011;149;51.094;17.002;2022-07-23T15:30:53;9.83;;;8.93;;
323;SDS011;149;51.094;17.002;2022-07-23T15:33:21;15.70;;;9.50;;
323;SDS011;149;51.094;17.002;2022-07-23T15:35:51;10.17;;;9.30;;
323;SDS011;149;51.094;17.002;2022-07-23T15:38:19;10.80;;;9.80;;
323;SDS011;149;51.094;17.002;2022-07-23T15:40:52;10.63;;;9.57;;
323;SDS011;149;51.094;17.002;2022-07-23T15:43:21;10.13;;;9.23;;
323;SDS011;149;51.094;17.002;2022-07-23T15:45:51;9.37;;;8.50;;
323;SDS011;149;51.094;17.002;2022-07-23T15:48:19;11.97;;;10.90;;
323;SDS011;149;51.094;17.002;2022-07-23T15:50:47;11.40;;;10.27;;
323;SDS011;149;51.094;17.002;2022-07-23T15:53:14;10.27;;;9.37;;
323;SDS011;149;51.094;17.002;2022-07-23T15:55:42;10.90;;;10.00;;
323;SDS011;149;51.094;17.002;2022-07-23T15:58:12;10.30;;;9.50;;
323;SDS011;149;51.094;17.002;2022-07-23T16:00:40;10.97;;;9.87;;
323;SDS011;149;51.094;17.002;2022-07-23T16:03:11;10.73;;;9.87;;
323;SDS011;149;51.094;17.002;2022-07-23T16:05:43;9.60;;;8.60;;
323;SDS011;149;51.094;17.002;2022-07-23T16:08:11;11.63;;;10.67;;
323;SDS011;149;51.094;17.002;2022-07-23T16:10:39;10.43;;;9.53;;
323;SDS011;149;51.094;17.002;2022-07-23T16:13:06;10.17;;;9.33;;
323;SDS011;149;51.094;17.002;2022-07-23T16:15:34;10.60;;;9.47;;
323;SDS011;149;51.094;17.002;2022-07-23T16:18:02;11.13;;;10.27;;
323;SDS011;149;51.094;17.002;2022-07-23T16:20:29;12.80;;;11.60;;
323;SDS011;149;51.094;17.002;2022-07-23T16:22:57;9.80;;;9.00;;
323;SDS011;149;51.094;17.002;2022-07-23T16:25:24;10.50;;;9.70;;
323;SDS011;149;51.094;17.002;2022-07-23T16:27:52;11.30;;;10.20;;
323;SDS011;149;51.094;17.002;2022-07-23T16:30:19;10.73;;;9.80;;
323;SDS011;149;51.094;17.002;2022-07-23T16:32:47;11.57;;;10.60;;